Time;durP1;ratioP1;P1;durP2;ratioP2;P2;SDS_P1;SDS_P2;PMS_P1;PMS_P2;Temp;Humidity;BMP_temperature;BMP_pressure;BME280_temperature;BME280_humidity;BME280_pressure;Samples;Min_cycle;Max_cycle;Signal;HPM_P1;HPM_P2
2023/06/26 00:00:22;;;;;;;6.82;6.22;;;;;;;;;;5094506;27;99355;-77
2023/06/26 00:02:49;;;;;;;10.38;6.70;;;;;;;;;;5091681;27;98276;-76
2023/06/26 00:05:15;;;;;;;7.50;6.78;;;;;;;;;;5090319;27;98599;-77
2023/06/26 00:07:42;;;;;;;7.45;6.53;;;;;;;;;;5090630;27;99129;-77
2023/06/26 00:10:08;;;;;;;7.00;6.50;;;;;;;;;;5090235;27;98391;-78
2023/06/26 00:12:35;;;;;;;8.75;6.50;;;;;;;;;;5091868;27;99168;-77
2023/06/26 00:15:02;;;;;;;7.22;6.53;;;;;;;;;;5091283;27;99846;-77
2023/06/26 00:17:29;;;;;;;15.70;6.45;;;;;;;;;;5090341;27;98012;-76
2023/06/26 00:19:55;;;;;;;16.55;6.70;;;;;;;;;;5090402;27;98678;-77
2023/06/26 00:22:22;;;;;;;12.65;5.70;;;;;;;;;;5094103;27;98235;-77
2023/06/26 00:24:48;;;;;;;5.85;5.35;;;;;;;;;;5090926;27;99346;-77
2023/06/26 00:27:14;;;;;;;5.47;4.97;;;;;;;;;;5091258;27;100203;-76
2023/06/26 00:29:43;;;;;;;5.10;4.70;;;;;;;;;;5090659;27;98201;-76
2023/06/26 00:32:09;;;;;;;5.60;5.10;;;;;;;;;;5090011;27;98361;-75
2023/06/26 00:34:36;;;;;;;6.35;5.47;;;;;;;;;;5089762;27;98756;-76
2023/06/26 00:37:02;;;;;;;8.27;5.63;;;;;;;;;;5071977;27;99168;-75
2023/06/26 00:39:29;;;;;;;7.10;5.43;;;;;;;;;;5071484;27;100799;-75
2023/06/26 00:41:56;;;;;;;5.53;5.00;;;;;;;;;;5074423;27;100978;-78
2023/06/26 00:44:22;;;;;;;5.68;5.18;;;;;;;;;;5091034;27;98703;-77
2023/06/26 00:46:50;;;;;;;5.10;4.70;;;;;;;;;;5071636;27;99883;-77
2023/06/26 00:49:16;;;;;;;5.80;5.40;;;;;;;;;;5089763;27;98232;-77
2023/06/26 00:51:43;;;;;;;5.07;4.65;;;;;;;;;;5092318;27;98518;-77
2023/06/26 00:54:10;;;;;;;5.15;4.65;;;;;;;;;;5071465;27;101801;-77
2023/06/26 00:56:37;;;;;;;4.70;4.30;;;;;;;;;;5090611;27;99087;-77
2023/06/26 00:59:04;;;;;;;5.28;4.88;;;;;;;;;;5071183;27;98554;-77
2023/06/26 01:01:31;;;;;;;7.03;4.93;;;;;;;;;;5089827;27;98844;-76
2023/06/26 01:03:58;;;;;;;5.15;4.75;;;;;;;;;;5093188;27;98642;-77
2023/06/26 01:06:25;;;;;;;5.95;5.53;;;;;;;;;;5071444;27;101637;-75
2023/06/26 01:08:52;;;;;;;5.50;5.00;;;;;;;;;;5070600;27;98369;-76
2023/06/26 01:11:18;;;;;;;5.10;4.65;;;;;;;;;;5090240;27;98278;-76
2023/06/26 01:13:45;;;;;;;5.85;4.95;;;;;;;;;;5089790;27;98775;-77
2023/06/26 01:16:12;;;;;;;5.65;5.20;;;;;;;;;;5090321;27;98189;-76
2023/06/26 01:18:41;;;;;;;8.98;4.47;;;;;;;;;;5071704;27;99891;-77
2023/06/26 01:21:12;;;;;;;6.30;4.80;;;;;;;;;;5087856;27;98967;-77
2023/06/26 01:23:47;;;;;;;7.82;5.13;;;;;;;;;;5089531;27;98338;-77
2023/06/26 01:26:13;;;;;;;8.30;5.13;;;;;;;;;;5093253;27;98337;-76
2023/06/26 01:28:41;;;;;;;5.22;4.75;;;;;;;;;;5089397;27;98455;-78
2023/06/26 01:31:10;;;;;;;6.80;4.63;;;;;;;;;;5071129;27;99465;-77
2023/06/26 01:33:36;;;;;;;5.30;4.80;;;;;;;;;;5089788;27;98694;-78
2023/06/26 01:36:03;;;;;;;5.43;4.45;;;;;;;;;;5070110;27;98809;-77
2023/06/26 01:38:30;;;;;;;5.43;5.00;;;;;;;;;;5089046;27;98761;-78
2023/06/26 01:40:56;;;;;;;5.72;4.80;;;;;;;;;;5089575;27;98763;-78
2023/06/26 01:43:28;;;;;;;9.40;5.35;;;;;;;;;;5069887;27;98530;-77
2023/06/26 01:45:59;;;;;;;4.18;3.78;;;;;;;;;;5071435;27;101206;-77
2023/06/26 01:48:29;;;;;;;5.10;4.70;;;;;;;;;;5092450;27;98734;-77
2023/06/26 01:50:58;;;;;;;4.07;3.78;;;;;;;;;;5088631;27;100471;-77
2023/06/26 01:53:28;;;;;;;5.07;3.90;;;;;;;;;;5088293;27;99898;-77
2023/06/26 01:55:57;;;;;;;4.95;4.45;;;;;;;;;;5088784;27;98228;-77
2023/06/26 01:58:24;;;;;;;6.32;3.90;;;;;;;;;;5089497;27;98488;-77
2023/06/26 02:00:51;;;;;;;5.88;4.35;;;;;;;;;;5070868;27;101884;-77
2023/06/26 02:03:17;;;;;;;9.25;3.72;;;;;;;;;;5087652;27;98292;-76
2023/06/26 02:05:44;;;;;;;4.03;3.65;;;;;;;;;;5071051;27;100007;-77
2023/06/26 02:08:13;;;;;;;3.63;3.33;;;;;;;;;;5069304;27;100653;-76
2023/06/26 02:10:47;;;;;;;6.50;3.42;;;;;;;;;;5091632;27;99763;-76
2023/06/26 02:13:15;;;;;;;8.20;3.63;;;;;;;;;;5069578;27;101546;-77
2023/06/26 02:15:42;;;;;;;3.78;3.42;;;;;;;;;;5070403;27;98880;-76
2023/06/26 02:18:08;;;;;;;7.38;3.65;;;;;;;;;;5088240;27;98560;-77
2023/06/26 02:20:35;;;;;;;3.20;2.95;;;;;;;;;;5070322;27;99985;-78
2023/06/26 02:23:01;;;;;;;12.32;4.03;;;;;;;;;;5070037;27;98246;-78
2023/06/26 02:25:28;;;;;;;4.57;3.65;;;;;;;;;;5069786;27;101368;-78
2023/06/26 02:27:54;;;;;;;5.78;3.55;;;;;;;;;;5088844;27;99868;-77
2023/06/26 02:30:21;;;;;;;5.28;3.75;;;;;;;;;;5073447;27;98272;-78
2023/06/26 02:32:47;;;;;;;5.45;3.67;;;;;;;;;;5069717;27;100398;-76
2023/06/26 02:35:17;;;;;;;5.35;3.45;;;;;;;;;;5070056;27;98197;-77
2023/06/26 02:37:43;;;;;;;4.75;3.55;;;;;;;;;;5069533;27;99770;-76
2023/06/26 02:40:10;;;;;;;7.47;3.83;;;;;;;;;;5068764;27;100816;-78
2023/06/26 02:42:38;;;;;;;3.58;3.28;;;;;;;;;;5070999;27;98544;-77
2023/06/26 02:45:04;;;;;;;5.63;3.28;;;;;;;;;;5069149;27;99460;-78
2023/06/26 02:47:32;;;;;;;8.40;3.70;;;;;;;;;;5069847;27;99090;-78
2023/06/26 02:49:58;;;;;;;7.05;3.60;;;;;;;;;;5070023;27;98293;-77
2023/06/26 02:52:28;;;;;;;6.70;3.83;;;;;;;;;;5072598;27;98685;-77
2023/06/26 02:54:55;;;;;;;10.43;3.92;;;;;;;;;;5070477;27;98318;-77
2023/06/26 02:57:21;;;;;;;8.13;3.80;;;;;;;;;;5088803;27;98313;-76
2023/06/26 02:59:48;;;;;;;6.88;3.75;;;;;;;;;;5068934;27;101179;-78
2023/06/26 03:02:14;;;;;;;9.55;3.53;;;;;;;;;;5087722;27;98207;-77
2023/06/26 03:04:44;;;;;;;4.00;3.45;;;;;;;;;;5069036;27;99424;-76
2023/06/26 03:07:13;;;;;;;5.60;3.17;;;;;;;;;;5067803;27;100816;-76
2023/06/26 03:09:41;;;;;;;5.30;3.63;;;;;;;;;;5066199;27;98330;-77
2023/06/26 03:12:08;;;;;;;11.65;3.80;;;;;;;;;;5066187;27;100588;-78
2023/06/26 03:14:35;;;;;;;5.50;3.25;;;;;;;;;;5068943;27;99382;-78
2023/06/26 03:17:03;;;;;;;12.95;4.07;;;;;;;;;;5065945;27;99641;-77
2023/06/26 03:19:32;;;;;;;19.40;3.45;;;;;;;;;;5066229;27;99129;-78
2023/06/26 03:22:15;;;;;;;4.97;3.60;;;;;;;;;;5064471;27;98281;-78
2023/06/26 03:24:43;;;;;;;13.57;3.70;;;;;;;;;;5065682;27;100411;-77
2023/06/26 03:27:10;;;;;;;9.95;4.82;;;;;;;;;;5064102;27;100431;-75
2023/06/26 03:29:36;;;;;;;10.30;3.50;;;;;;;;;;5067307;27;98303;-77
2023/06/26 03:32:03;;;;;;;12.80;4.20;;;;;;;;;;5066075;27;98759;-77
2023/06/26 03:34:30;;;;;;;10.23;3.65;;;;;;;;;;5065492;27;99617;-77
2023/06/26 03:36:56;;;;;;;7.53;4.45;;;;;;;;;;5069103;27;98253;-77
2023/06/26 03:39:23;;;;;;;12.52;3.17;;;;;;;;;;5065871;27;101647;-77
2023/06/26 03:41:49;;;;;;;7.57;2.97;;;;;;;;;;5066918;27;98387;-77
2023/06/26 03:44:16;;;;;;;10.13;4.22;;;;;;;;;;5067369;27;98787;-77
2023/06/26 03:46:46;;;;;;;8.73;3.75;;;;;;;;;;5065478;27;101347;-78
2023/06/26 03:49:13;;;;;;;9.68;4.03;;;;;;;;;;5066224;27;98279;-78
2023/06/26 03:51:40;;;;;;;9.90;4.20;;;;;;;;;;5065461;27;99254;-77
2023/06/26 03:54:07;;;;;;;8.75;4.07;;;;;;;;;;5064683;27;100828;-77
2023/06/26 03:56:33;;;;;;;9.45;4.35;;;;;;;;;;5064283;27;98096;-78
2023/06/26 03:59:00;;;;;;;8.50;5.07;;;;;;;;;;5068551;27;99567;-77
2023/06/26 04:01:27;;;;;;;9.43;4.30;;;;;;;;;;5067423;27;98239;-77
2023/06/26 04:03:54;;;;;;;14.50;4.57;;;;;;;;;;5066583;27;98233;-79
2023/06/26 04:06:20;;;;;;;7.63;3.42;;;;;;;;;;5065680;27;102133;-78
2023/06/26 04:08:47;;;;;;;12.30;4.00;;;;;;;;;;5065033;27;98140;-78
2023/06/26 04:11:16;;;;;;;12.85;4.05;;;;;;;;;;5064479;27;101108;-78
2023/06/26 04:13:42;;;;;;;8.60;4.00;;;;;;;;;;5066206;27;98905;-78
2023/06/26 04:16:11;;;;;;;11.68;4.25;;;;;;;;;;5066008;27;98308;-78
2023/06/26 04:18:37;;;;;;;11.55;4.75;;;;;;;;;;5068857;27;98673;-77
2023/06/26 04:21:07;;;;;;;7.28;3.60;;;;;;;;;;5073395;27;99963;-79
2023/06/26 04:23:34;;;;;;;10.60;4.13;;;;;;;;;;5069061;27;99033;-76
2023/06/26 04:26:00;;;;;;;13.07;5.07;;;;;;;;;;5069649;27;99522;-78
2023/06/26 04:28:27;;;;;;;15.68;5.30;;;;;;;;;;5069726;27;98233;-78
2023/06/26 04:30:53;;;;;;;5.72;3.30;;;;;;;;;;5069148;27;98360;-78
2023/06/26 04:33:20;;;;;;;13.55;4.80;;;;;;;;;;5070466;27;102686;-78
2023/06/26 04:35:48;;;;;;;8.63;3.90;;;;;;;;;;5070198;27;98640;-78
2023/06/26 04:38:15;;;;;;;10.40;4.50;;;;;;;;;;5068868;27;98494;-78
2023/06/26 04:40:41;;;;;;;14.80;4.50;;;;;;;;;;5072043;27;99446;-78
2023/06/26 04:43:08;;;;;;;8.80;3.60;;;;;;;;;;5069604;27;98831;-78
2023/06/26 04:45:35;;;;;;;10.50;3.97;;;;;;;;;;5068483;27;98947;-78
2023/06/26 04:48:01;;;;;;;10.95;4.03;;;;;;;;;;5069489;27;98240;-78
2023/06/26 04:50:28;;;;;;;11.40;3.88;;;;;;;;;;5070121;27;99545;-78
2023/06/26 04:52:55;;;;;;;8.52;3.60;;;;;;;;;;5068134;27;99050;-78
2023/06/26 04:55:23;;;;;;;9.25;3.75;;;;;;;;;;5069891;27;98002;-78
2023/06/26 04:57:50;;;;;;;16.70;3.63;;;;;;;;;;5070311;27;99810;-78
2023/06/26 05:00:17;;;;;;;8.48;3.63;;;;;;;;;;5068174;27;98924;-79
2023/06/26 05:02:43;;;;;;;11.57;4.20;;;;;;;;;;5073272;27;98607;-78
2023/06/26 05:05:11;;;;;;;10.88;4.30;;;;;;;;;;5068699;27;99494;-78
2023/06/26 05:07:37;;;;;;;9.88;3.60;;;;;;;;;;5068562;27;98712;-77
2023/06/26 05:10:04;;;;;;;6.35;3.97;;;;;;;;;;5088773;27;99364;-77
2023/06/26 05:12:32;;;;;;;10.00;2.92;;;;;;;;;;5089547;27;98596;-77
2023/06/26 05:14:58;;;;;;;6.63;3.20;;;;;;;;;;5088170;27;98860;-77
2023/06/26 05:17:24;;;;;;;7.32;3.40;;;;;;;;;;5089879;27;98399;-77
2023/06/26 05:19:51;;;;;;;8.23;3.25;;;;;;;;;;5088840;27;99925;-79
2023/06/26 05:22:18;;;;;;;6.15;3.20;;;;;;;;;;5089646;27;98425;-76
2023/06/26 05:24:46;;;;;;;10.10;3.38;;;;;;;;;;5093223;27;99406;-78
2023/06/26 05:27:20;;;;;;;10.60;3.30;;;;;;;;;;5088063;27;98731;-76
2023/06/26 05:29:47;;;;;;;10.40;3.00;;;;;;;;;;5088142;27;98474;-77
2023/06/26 05:32:17;;;;;;;5.70;3.08;;;;;;;;;;5088524;27;99241;-77
2023/06/26 05:34:51;;;;;;;6.47;2.80;;;;;;;;;;5088257;27;98257;-77
2023/06/26 05:37:21;;;;;;;8.93;3.05;;;;;;;;;;5089591;27;101563;-77
2023/06/26 05:39:48;;;;;;;6.50;2.45;;;;;;;;;;5089705;27;99860;-77
2023/06/26 05:42:14;;;;;;;8.02;2.40;;;;;;;;;;5088215;27;98275;-79
2023/06/26 05:44:41;;;;;;;3.72;3.05;;;;;;;;;;5089224;27;98735;-78
2023/06/26 05:47:07;;;;;;;9.07;2.38;;;;;;;;;;5092779;27;100066;-78
2023/06/26 05:49:34;;;;;;;2.80;2.28;;;;;;;;;;5088982;27;99555;-78
2023/06/26 05:52:00;;;;;;;8.25;2.20;;;;;;;;;;5089171;27;100002;-78
2023/06/26 05:54:27;;;;;;;5.22;2.10;;;;;;;;;;5088119;27;98289;-77
2023/06/26 05:56:56;;;;;;;5.95;2.42;;;;;;;;;;5088207;27;98725;-76
2023/06/26 05:59:23;;;;;;;3.80;2.03;;;;;;;;;;5088301;27;99709;-76
2023/06/26 06:01:49;;;;;;;3.35;1.98;;;;;;;;;;5088444;27;98334;-77
2023/06/26 06:04:16;;;;;;;2.42;2.22;;;;;;;;;;5087655;27;98662;-76
2023/06/26 06:06:42;;;;;;;2.47;1.90;;;;;;;;;;5089092;27;100242;-78
2023/06/26 06:09:09;;;;;;;2.20;1.80;;;;;;;;;;5091342;27;98636;-78
2023/06/26 06:11:35;;;;;;;1.90;1.70;;;;;;;;;;5088289;27;98996;-77
2023/06/26 06:14:02;;;;;;;3.45;1.58;;;;;;;;;;5088487;27;98236;-76
2023/06/26 06:16:29;;;;;;;2.78;1.92;;;;;;;;;;5088365;27;99455;-77
2023/06/26 06:18:55;;;;;;;1.58;1.40;;;;;;;;;;5087926;27;100047;-76
2023/06/26 06:21:22;;;;;;;3.05;1.85;;;;;;;;;;5088353;27;98317;-75
2023/06/26 06:23:48;;;;;;;2.15;1.70;;;;;;;;;;5088374;27;99467;-77
2023/06/26 06:26:15;;;;;;;2.13;1.90;;;;;;;;;;5088660;27;100044;-77
2023/06/26 06:28:41;;;;;;;2.58;1.77;;;;;;;;;;5088529;27;98270;-77
2023/06/26 06:31:07;;;;;;;4.03;1.92;;;;;;;;;;5091130;27;99423;-78
2023/06/26 06:33:34;;;;;;;5.65;2.05;;;;;;;;;;5090525;27;97971;-77
2023/06/26 06:36:01;;;;;;;4.57;2.28;;;;;;;;;;5090698;27;98852;-78
2023/06/26 06:38:27;;;;;;;3.83;1.70;;;;;;;;;;5087088;27;98951;-78
2023/06/26 06:40:53;;;;;;;4.78;2.00;;;;;;;;;;5088106;27;98164;-78
2023/06/26 06:43:20;;;;;;;3.53;2.08;;;;;;;;;;5087136;27;100018;-77
2023/06/26 06:45:46;;;;;;;6.20;1.75;;;;;;;;;;5087769;27;99913;-79
2023/06/26 06:48:13;;;;;;;7.32;2.00;;;;;;;;;;5087998;27;98300;-78
2023/06/26 06:50:39;;;;;;;1.67;1.58;;;;;;;;;;5091803;27;99414;-76
2023/06/26 06:53:07;;;;;;;1.60;1.35;;;;;;;;;;5087286;27;98320;-76
2023/06/26 06:55:33;;;;;;;3.78;1.50;;;;;;;;;;5087751;27;98499;-79
2023/06/26 06:58:00;;;;;;;4.55;1.70;;;;;;;;;;5087952;27;100205;-76
2023/06/26 07:00:31;;;;;;;2.00;1.45;;;;;;;;;;5087323;27;98877;-76
2023/06/26 07:03:00;;;;;;;3.58;1.90;;;;;;;;;;5087734;27;98809;-76
2023/06/26 07:05:26;;;;;;;1.40;1.30;;;;;;;;;;5087455;27;100368;-76
2023/06/26 07:07:53;;;;;;;2.33;1.95;;;;;;;;;;5087116;27;98233;-76
2023/06/26 07:10:19;;;;;;;4.43;1.80;;;;;;;;;;5088069;27;99305;-76
2023/06/26 07:12:46;;;;;;;2.58;1.83;;;;;;;;;;5090072;27;99158;-75
2023/06/26 07:15:13;;;;;;;2.22;1.80;;;;;;;;;;5086753;27;98689;-76
2023/06/26 07:17:39;;;;;;;3.88;1.70;;;;;;;;;;5088092;27;99945;-78
2023/06/26 07:20:08;;;;;;;4.60;2.38;;;;;;;;;;5087015;27;98396;-77
2023/06/26 07:22:35;;;;;;;2.17;1.92;;;;;;;;;;5088484;27;99439;-77
2023/06/26 07:25:02;;;;;;;3.38;2.15;;;;;;;;;;5087823;27;99951;-77
2023/06/26 07:27:28;;;;;;;3.85;1.70;;;;;;;;;;5087424;27;98226;-77
2023/06/26 07:29:55;;;;;;;4.45;2.40;;;;;;;;;;5088203;27;99467;-77
2023/06/26 07:32:21;;;;;;;4.38;2.22;;;;;;;;;;5087050;27;99965;-76
2023/06/26 07:34:48;;;;;;;4.55;2.00;;;;;;;;;;5090553;27;98326;-76
2023/06/26 07:37:14;;;;;;;5.38;2.25;;;;;;;;;;5086628;27;98645;-78
2023/06/26 07:39:41;;;;;;;5.78;2.38;;;;;;;;;;5086906;27;98275;-78
2023/06/26 07:42:07;;;;;;;1.85;1.52;;;;;;;;;;5086345;27;98714;-77
2023/06/26 07:44:34;;;;;;;5.25;1.83;;;;;;;;;;5087396;27;99062;-78
2023/06/26 07:47:00;;;;;;;4.70;2.25;;;;;;;;;;5087592;27;98888;-78
2023/06/26 07:49:27;;;;;;;2.22;1.55;;;;;;;;;;5087380;27;99846;-76
2023/06/26 07:51:53;;;;;;;2.25;2.03;;;;;;;;;;5088696;27;100519;-76
2023/06/26 07:54:20;;;;;;;2.33;1.88;;;;;;;;;;5090760;27;98275;-76
2023/06/26 07:56:57;;;;;;;3.55;2.03;;;;;;;;;;5093399;27;99385;-76
2023/06/26 07:59:24;;;;;;;6.20;2.20;;;;;;;;;;5091353;27;98101;-76
2023/06/26 08:01:51;;;;;;;8.85;2.50;;;;;;;;;;5090812;27;99382;-76
2023/06/26 08:04:21;;;;;;;4.68;2.30;;;;;;;;;;5089498;27;99048;-76
2023/06/26 08:06:49;;;;;;;1.98;1.83;;;;;;;;;;5090260;27;98307;-77
2023/06/26 08:09:16;;;;;;;4.00;2.17;;;;;;;;;;5088940;27;98533;-77
2023/06/26 08:11:43;;;;;;;8.95;2.67;;;;;;;;;;5093044;27;101223;-77
2023/06/26 08:14:09;;;;;;;4.35;1.80;;;;;;;;;;5091564;27;98014;-78
2023/06/26 08:16:36;;;;;;;5.65;2.03;;;;;;;;;;5090952;27;99612;-78
2023/06/26 08:19:02;;;;;;;4.32;2.03;;;;;;;;;;5094370;27;99890;-78
2023/06/26 08:21:29;;;;;;;5.53;2.28;;;;;;;;;;5088622;27;98490;-80
2023/06/26 08:23:55;;;;;;;3.80;1.95;;;;;;;;;;5089962;27;100097;-76
2023/06/26 08:26:22;;;;;;;2.72;2.05;;;;;;;;;;5089957;27;98244;-75
2023/06/26 08:28:48;;;;;;;9.50;1.90;;;;;;;;;;5090337;27;98511;-78
2023/06/26 08:31:15;;;;;;;2.10;1.88;;;;;;;;;;5089550;27;99541;-77
2023/06/26 08:33:42;;;;;;;3.40;1.38;;;;;;;;;;5091112;27;98265;-77
2023/06/26 08:36:08;;;;;;;3.63;1.67;;;;;;;;;;5090441;27;100073;-77
2023/06/26 08:38:35;;;;;;;3.17;1.88;;;;;;;;;;5090413;27;100179;-77
2023/06/26 08:41:01;;;;;;;3.30;1.40;;;;;;;;;;5093932;27;98021;-77
2023/06/26 08:43:28;;;;;;;2.67;1.40;;;;;;;;;;5090703;27;99935;-77
2023/06/26 08:45:54;;;;;;;6.38;1.65;;;;;;;;;;5088638;27;98255;-77
2023/06/26 08:48:21;;;;;;;4.55;1.83;;;;;;;;;;5089792;27;98480;-77
2023/06/26 08:50:48;;;;;;;9.30;1.52;;;;;;;;;;5088915;27;98704;-77
2023/06/26 08:53:36;;;;;;;12.90;1.40;;;;;;;;;;5089220;27;98285;-77
2023/06/26 08:56:03;;;;;;;4.07;1.75;;;;;;;;;;5090267;27;99440;-77
2023/06/26 08:58:30;;;;;;;3.60;1.38;;;;;;;;;;5089539;27;100373;-77
2023/06/26 09:00:57;;;;;;;6.07;1.55;;;;;;;;;;5092979;27;98308;-78
2023/06/26 09:03:24;;;;;;;1.48;1.20;;;;;;;;;;5089903;27;99900;-78
2023/06/26 09:05:51;;;;;;;4.60;1.98;;;;;;;;;;5088590;27;98527;-78
2023/06/26 09:08:18;;;;;;;3.70;1.15;;;;;;;;;;5089171;27;98314;-77
2023/06/26 09:10:44;;;;;;;6.68;1.73;;;;;;;;;;5088823;27;99211;-77
2023/06/26 09:13:12;;;;;;;3.70;1.23;;;;;;;;;;5087967;27;98300;-77
2023/06/26 09:15:55;;;;;;;8.02;1.50;;;;;;;;;;5090334;27;99681;-77
2023/06/26 09:18:22;;;;;;;4.00;1.10;;;;;;;;;;5089889;27;100375;-76
2023/06/26 09:20:49;;;;;;;2.38;1.13;;;;;;;;;;5089012;27;98300;-77
2023/06/26 09:23:15;;;;;;;2.60;1.20;;;;;;;;;;5093149;27;99461;-76
2023/06/26 09:25:44;;;;;;;3.63;1.40;;;;;;;;;;5089885;27;98272;-77
2023/06/26 09:28:11;;;;;;;3.20;1.25;;;;;;;;;;5088388;27;98524;-76
2023/06/26 09:30:37;;;;;;;3.25;1.17;;;;;;;;;;5089034;27;98881;-77
2023/06/26 09:33:18;;;;;;;9.00;1.45;;;;;;;;;;5087690;27;97968;-77
2023/06/26 09:35:44;;;;;;;8.27;1.30;;;;;;;;;;5089059;27;99389;-77
2023/06/26 09:38:11;;;;;;;4.97;1.35;;;;;;;;;;5089267;27;99853;-77
2023/06/26 09:40:38;;;;;;;3.70;1.35;;;;;;;;;;5088557;27;98232;-77
2023/06/26 09:43:05;;;;;;;6.68;1.90;;;;;;;;;;5089723;27;99496;-77
2023/06/26 09:45:32;;;;;;;2.13;1.38;;;;;;;;;;5092966;27;99992;-77
2023/06/26 09:48:00;;;;;;;2.65;1.48;;;;;;;;;;5088621;27;99724;-77
2023/06/26 09:50:27;;;;;;;3.75;1.13;;;;;;;;;;5089361;27;99964;-77
2023/06/26 09:52:54;;;;;;;5.03;1.13;;;;;;;;;;5088992;27;98289;-77
2023/06/26 09:55:23;;;;;;;5.85;1.63;;;;;;;;;;5087509;27;98944;-77
2023/06/26 09:57:50;;;;;;;4.30;1.70;;;;;;;;;;5088231;27;99032;-77
2023/06/26 10:00:17;;;;;;;3.13;1.38;;;;;;;;;;5088478;27;98249;-77
2023/06/26 10:02:44;;;;;;;2.45;1.20;;;;;;;;;;5089000;27;99580;-77
2023/06/26 10:05:11;;;;;;;2.38;1.10;;;;;;;;;;5089706;27;100016;-77
2023/06/26 10:07:38;;;;;;;3.42;1.33;;;;;;;;;;5092601;27;98247;-77
2023/06/26 10:10:05;;;;;;;1.15;1.05;;;;;;;;;;5086985;27;98963;-77
2023/06/26 10:12:33;;;;;;;4.32;1.40;;;;;;;;;;5089250;27;98208;-77
2023/06/26 10:15:02;;;;;;;4.20;1.33;;;;;;;;;;5088077;27;99393;-77
2023/06/26 10:17:30;;;;;;;8.38;1.42;;;;;;;;;;5088551;27;100379;-77
2023/06/26 10:19:57;;;;;;;1.40;1.13;;;;;;;;;;5088546;27;98262;-77
2023/06/26 10:22:27;;;;;;;1.75;1.20;;;;;;;;;;5087312;27;98765;-77
2023/06/26 10:24:55;;;;;;;1.52;0.75;;;;;;;;;;5086735;27;98898;-77
2023/06/26 10:27:23;;;;;;;5.15;1.30;;;;;;;;;;5088068;27;98249;-77
2023/06/26 10:29:52;;;;;;;3.13;1.17;;;;;;;;;;5091551;27;99474;-77
2023/06/26 10:32:20;;;;;;;2.78;1.00;;;;;;;;;;5088787;27;98248;-77
2023/06/26 10:34:47;;;;;;;4.60;1.15;;;;;;;;;;5087764;27;98518;-77
2023/06/26 10:37:13;;;;;;;3.65;1.38;;;;;;;;;;5087192;27;98156;-77
2023/06/26 10:39:47;;;;;;;3.40;1.13;;;;;;;;;;5087951;27;98475;-75
2023/06/26 10:42:14;;;;;;;3.47;0.85;;;;;;;;;;5087961;27;98772;-77
2023/06/26 10:44:43;;;;;;;1.33;1.20;;;;;;;;;;5087338;27;99489;-78
2023/06/26 10:47:11;;;;;;;6.95;1.00;;;;;;;;;;5088416;27;98264;-77
2023/06/26 10:49:42;;;;;;;1.80;1.05;;;;;;;;;;5087922;27;99414;-77
2023/06/26 10:52:08;;;;;;;1.50;0.80;;;;;;;;;;5090527;27;98229;-77
2023/06/26 10:54:37;;;;;;;5.22;1.20;;;;;;;;;;5088081;27;98399;-77
2023/06/26 10:57:03;;;;;;;2.35;0.70;;;;;;;;;;5087856;27;100000;-77
2023/06/26 10:59:31;;;;;;;1.63;0.70;;;;;;;;;;5087496;27;98719;-78
2023/06/26 11:02:03;;;;;;;1.73;0.88;;;;;;;;;;5069761;27;99745;-77
2023/06/26 11:04:46;;;;;;;0.93;0.90;;;;;;;;;;5087300;27;99072;-78
2023/06/26 11:07:17;;;;;;;0.95;0.75;;;;;;;;;;5088679;27;98221;-77
2023/06/26 11:09:53;;;;;;;5.72;2.40;;;;;;;;;;5088133;27;100224;-77
2023/06/26 11:12:38;;;;;;;3.90;1.00;;;;;;;;;;5091138;27;101392;-78
2023/06/26 11:15:08;;;;;;;2.35;1.10;;;;;;;;;;5087621;27;99299;-76
2023/06/26 11:17:35;;;;;;;2.83;1.13;;;;;;;;;;5088485;27;99048;-77
2023/06/26 11:20:04;;;;;;;10.70;1.85;;;;;;;;;;5089522;27;98202;-78
2023/06/26 11:22:34;;;;;;;5.93;0.85;;;;;;;;;;5090526;27;99401;-78
2023/06/26 11:25:01;;;;;;;2.08;0.82;;;;;;;;;;5088199;27;100261;-76
2023/06/26 11:27:45;;;;;;;6.22;1.13;;;;;;;;;;5089833;27;98265;-76
2023/06/26 11:30:22;;;;;;;3.72;1.13;;;;;;;;;;5091147;27;98468;-77
2023/06/26 11:32:49;;;;;;;1.35;0.80;;;;;;;;;;5091093;27;100091;-75
2023/06/26 11:35:23;;;;;;;13.82;1.38;;;;;;;;;;5093994;27;98336;-75
2023/06/26 11:37:50;;;;;;;1.90;1.02;;;;;;;;;;5091054;27;99111;-75
2023/06/26 11:40:17;;;;;;;1.50;0.95;;;;;;;;;;5089913;27;98234;-75
2023/06/26 11:42:44;;;;;;;0.80;0.80;;;;;;;;;;5090764;27;99075;-75
2023/06/26 11:45:10;;;;;;;1.95;0.80;;;;;;;;;;5090584;27;99378;-78
2023/06/26 11:47:38;;;;;;;3.92;1.05;;;;;;;;;;5091020;27;99169;-76
2023/06/26 11:50:05;;;;;;;2.22;1.08;;;;;;;;;;5091910;27;99485;-76
2023/06/26 11:52:33;;;;;;;2.30;0.93;;;;;;;;;;5091371;27;98958;-76
2023/06/26 11:54:59;;;;;;;13.73;1.20;;;;;;;;;;5090739;27;98233;-76
2023/06/26 11:57:26;;;;;;;2.22;1.00;;;;;;;;;;5095546;27;99450;-76
2023/06/26 11:59:52;;;;;;;2.00;1.33;;;;;;;;;;5092322;27;98401;-76
2023/06/26 12:02:20;;;;;;;1.88;0.77;;;;;;;;;;5090260;27;99390;-76
2023/06/26 12:04:47;;;;;;;1.45;1.00;;;;;;;;;;5090045;27;98937;-76
2023/06/26 12:07:14;;;;;;;5.82;0.90;;;;;;;;;;5092120;27;98163;-76
2023/06/26 12:09:45;;;;;;;0.98;0.68;;;;;;;;;;5091839;27;98520;-76
2023/06/26 12:12:14;;;;;;;4.43;1.17;;;;;;;;;;5093492;27;99858;-76
2023/06/26 12:14:40;;;;;;;2.03;0.60;;;;;;;;;;5090186;27;98883;-77
2023/06/26 12:17:11;;;;;;;2.33;0.80;;;;;;;;;;5090464;27;99028;-76
2023/06/26 12:19:39;;;;;;;2.60;1.23;;;;;;;;;;5094575;27;99533;-76
2023/06/26 12:22:06;;;;;;;4.53;1.23;;;;;;;;;;5090160;27;98353;-76
2023/06/26 12:24:32;;;;;;;1.58;1.02;;;;;;;;;;5091743;27;100269;-76
2023/06/26 12:26:58;;;;;;;3.67;0.85;;;;;;;;;;5090212;27;98497;-76
2023/06/26 12:29:29;;;;;;;3.20;0.90;;;;;;;;;;5089178;27;99391;-76
2023/06/26 12:31:56;;;;;;;2.08;0.85;;;;;;;;;;5090526;27;100411;-76
2023/06/26 12:34:32;;;;;;;1.27;0.70;;;;;;;;;;5090983;27;98839;-77
2023/06/26 12:37:00;;;;;;;1.95;0.80;;;;;;;;;;5091030;27;99558;-76
2023/06/26 12:39:27;;;;;;;3.20;1.13;;;;;;;;;;5093141;27;99951;-76
2023/06/26 12:41:54;;;;;;;1.90;0.88;;;;;;;;;;5097371;27;98362;-76
2023/06/26 12:44:30;;;;;;;3.40;0.73;;;;;;;;;;5095701;27;99881;-77
2023/06/26 12:46:58;;;;;;;1.52;1.00;;;;;;;;;;5093841;27;98284;-76
2023/06/26 12:49:34;;;;;;;1.63;0.80;;;;;;;;;;5093556;27;98604;-77
2023/06/26 12:52:01;;;;;;;1.02;0.80;;;;;;;;;;5092463;27;100100;-76
2023/06/26 12:54:27;;;;;;;3.13;0.93;;;;;;;;;;5093288;27;98288;-76
2023/06/26 12:56:54;;;;;;;1.85;1.02;;;;;;;;;;5093234;27;98555;-77
2023/06/26 12:59:21;;;;;;;4.63;1.00;;;;;;;;;;5096255;27;100124;-76
2023/06/26 13:01:48;;;;;;;5.28;1.00;;;;;;;;;;5097848;27;98361;-76
2023/06/26 13:04:15;;;;;;;1.88;1.25;;;;;;;;;;5096614;27;99899;-76
2023/06/26 13:06:41;;;;;;;2.13;1.05;;;;;;;;;;5095898;27;98293;-76
2023/06/26 13:09:08;;;;;;;2.13;0.98;;;;;;;;;;5094627;27;98693;-76
2023/06/26 13:11:36;;;;;;;1.08;0.60;;;;;;;;;;5095590;27;100043;-76
2023/06/26 13:14:03;;;;;;;3.47;0.90;;;;;;;;;;5094147;27;98341;-77
2023/06/26 13:16:37;;;;;;;5.47;0.80;;;;;;;;;;5092129;27;99007;-77
2023/06/26 13:19:04;;;;;;;3.00;0.90;;;;;;;;;;5089206;27;100177;-77
2023/06/26 13:21:30;;;;;;;1.10;0.70;;;;;;;;;;5091216;27;98208;-77
2023/06/26 13:23:57;;;;;;;3.25;1.00;;;;;;;;;;5094681;27;100053;-76
2023/06/26 13:26:23;;;;;;;1.42;0.70;;;;;;;;;;5090538;27;98035;-76
2023/06/26 13:29:03;;;;;;;1.55;0.85;;;;;;;;;;5089135;27;98787;-76
2023/06/26 13:31:29;;;;;;;1.40;0.80;;;;;;;;;;5090509;27;100371;-76
2023/06/26 13:34:01;;;;;;;1.30;0.63;;;;;;;;;;5089173;27;98356;-76
2023/06/26 13:36:28;;;;;;;1.30;0.90;;;;;;;;;;5090785;27;100007;-77
2023/06/26 13:38:57;;;;;;;2.55;0.93;;;;;;;;;;5090330;27;100147;-76
2023/06/26 13:41:24;;;;;;;4.03;0.90;;;;;;;;;;5089415;27;98981;-76
2023/06/26 13:43:51;;;;;;;1.13;0.77;;;;;;;;;;5088458;27;98644;-76
2023/06/26 13:46:18;;;;;;;7.40;1.33;;;;;;;;;;5101288;27;99957;-76
2023/06/26 13:48:45;;;;;;;1.63;0.82;;;;;;;;;;5090280;27;99413;-76
2023/06/26 13:51:12;;;;;;;4.57;0.80;;;;;;;;;;5089255;27;99968;-76
2023/06/26 13:53:38;;;;;;;2.15;0.95;;;;;;;;;;5089541;27;98280;-76
2023/06/26 13:56:05;;;;;;;3.50;0.68;;;;;;;;;;5088802;27;98487;-76
2023/06/26 13:58:34;;;;;;;2.50;1.10;;;;;;;;;;5089872;27;100003;-76
2023/06/26 14:01:01;;;;;;;0.90;0.85;;;;;;;;;;5089080;27;98468;-76
2023/06/26 14:03:28;;;;;;;6.70;0.73;;;;;;;;;;5088919;27;98477;-76
2023/06/26 14:05:55;;;;;;;0.73;0.70;;;;;;;;;;5089449;27;100364;-76
2023/06/26 14:08:21;;;;;;;4.80;1.13;;;;;;;;;;5091000;27;98218;-76
2023/06/26 14:10:48;;;;;;;1.42;0.63;;;;;;;;;;5088740;27;98953;-76
2023/06/26 14:13:15;;;;;;;2.08;0.90;;;;;;;;;;5090263;27;98315;-76
2023/06/26 14:15:42;;;;;;;4.30;1.73;;;;;;;;;;5089014;27;99630;-76
2023/06/26 14:18:08;;;;;;;3.88;1.20;;;;;;;;;;5089439;27;99111;-76
2023/06/26 14:20:35;;;;;;;1.00;0.77;;;;;;;;;;5089151;27;98273;-76
2023/06/26 14:23:03;;;;;;;0.93;0.73;;;;;;;;;;5088377;27;99613;-76
2023/06/26 14:25:29;;;;;;;1.60;0.82;;;;;;;;;;5089141;27;99006;-76
2023/06/26 14:27:57;;;;;;;2.05;0.80;;;;;;;;;;5089325;27;98281;-76
2023/06/26 14:30:23;;;;;;;1.67;0.75;;;;;;;;;;5091785;27;99302;-76
2023/06/26 14:32:50;;;;;;;16.13;1.10;;;;;;;;;;5087353;27;98447;-75
2023/06/26 14:35:17;;;;;;;0.82;0.80;;;;;;;;;;5088680;27;99695;-76
2023/06/26 14:37:44;;;;;;;1.63;0.88;;;;;;;;;;5088136;27;100535;-75
2023/06/26 14:40:11;;;;;;;3.95;0.80;;;;;;;;;;5088362;27;98268;-76